createdAt,value
2017-05-26T00:00:01.071Z,16.35
2017-05-26T00:02:29.140Z,14.17
2017-05-26T00:04:57.557Z,11.83
2017-05-26T00:07:25.214Z,13.23
2017-05-26T00:09:52.884Z,12.35
2017-05-26T00:12:20.534Z,12.03
2017-05-26T00:14:48.589Z,12.87
2017-05-26T00:17:16.238Z,14.45
2017-05-26T00:19:43.896Z,15.38
2017-05-26T00:22:11.572Z,14.55
2017-05-26T00:24:39.994Z,13.48
2017-05-26T00:27:08.036Z,12.50
2017-05-26T00:29:35.697Z,11.12
2017-05-26T00:32:03.496Z,12.17
2017-05-26T00:34:31.178Z,11.27
2017-05-26T00:36:58.836Z,13.67
2017-05-26T00:39:26.792Z,13.90
2017-05-26T00:41:54.449Z,14.17
2017-05-26T00:44:22.110Z,14.57
2017-05-26T00:46:50.028Z,14.67
2017-05-26T00:49:18.538Z,14.85
2017-05-26T00:51:46.563Z,13.25
2017-05-26T00:54:14.214Z,13.28
2017-05-26T00:56:41.865Z,16.27
2017-05-26T00:59:09.552Z,14.27
2017-05-26T01:01:37.211Z,14.08
2017-05-26T01:04:05.288Z,13.80
2017-05-26T01:06:32.946Z,15.48
2017-05-26T01:09:00.600Z,15.67
2017-05-26T01:11:28.270Z,15.60
2017-05-26T01:13:55.924Z,15.80
2017-05-26T01:16:23.954Z,14.98
2017-05-26T01:18:51.594Z,13.27
2017-05-26T01:21:19.345Z,13.52
2017-05-26T01:23:47.292Z,12.42
2017-05-26T01:26:15.711Z,11.37
2017-05-26T01:28:43.371Z,13.22
2017-05-26T01:31:11.374Z,14.70
2017-05-26T01:33:40.162Z,14.37
2017-05-26T01:36:07.810Z,13.15
2017-05-26T01:38:35.489Z,12.17
2017-05-26T01:41:03.134Z,11.68
2017-05-26T01:43:31.160Z,13.33
2017-05-26T01:45:58.833Z,14.43
2017-05-26T01:48:26.562Z,15.60
2017-05-26T01:50:54.232Z,12.68
2017-05-26T01:53:21.905Z,11.78
2017-05-26T01:55:49.877Z,15.47
2017-05-26T01:58:17.532Z,14.28
2017-05-26T02:00:45.944Z,14.70
2017-05-26T02:03:13.633Z,14.13
2017-05-26T02:05:42.046Z,15.80
2017-05-26T02:08:10.045Z,14.43
2017-05-26T02:10:37.706Z,13.48
2017-05-26T02:13:06.120Z,14.68
2017-05-26T02:15:34.565Z,13.68
2017-05-26T02:18:02.221Z,15.48
2017-05-26T02:20:30.345Z,15.97
2017-05-26T02:22:57.993Z,14.63
2017-05-26T02:25:26.411Z,13.10
2017-05-26T02:27:54.090Z,13.83
2017-05-26T02:30:21.736Z,13.12
2017-05-26T02:32:49.705Z,14.03
2017-05-26T02:35:17.357Z,13.05
2017-05-26T02:37:45.043Z,13.98
2017-05-26T02:40:12.721Z,14.15
2017-05-26T02:42:40.365Z,12.75
2017-05-26T02:45:08.330Z,14.05
2017-05-26T02:47:35.990Z,13.30
2017-05-26T02:50:03.641Z,15.63
2017-05-26T02:52:31.316Z,13.10
2017-05-26T02:54:59.733Z,13.68
2017-05-26T02:57:27.686Z,13.75
2017-05-26T02:59:55.338Z,11.45
2017-05-26T03:02:23.000Z,11.53
2017-05-26T03:04:50.684Z,12.67
2017-05-26T03:07:18.336Z,12.07
2017-05-26T03:09:46.349Z,12.70
2017-05-26T03:12:14.021Z,14.93
2017-05-26T03:14:41.671Z,13.02
2017-05-26T03:17:09.352Z,13.43
2017-05-26T03:19:37.009Z,11.77
2017-05-26T03:22:05.796Z,13.92
2017-05-26T03:24:33.453Z,14.83
2017-05-26T03:27:01.107Z,13.83
2017-05-26T03:29:28.787Z,12.33
2017-05-26T03:31:56.437Z,14.80
2017-05-26T03:34:24.435Z,15.50
2017-05-26T03:36:52.091Z,14.60
2017-05-26T03:39:20.517Z,12.32
2017-05-26T03:41:48.202Z,13.00
2017-05-26T03:44:15.862Z,13.62
2017-05-26T03:46:43.830Z,14.80
2017-05-26T03:49:11.497Z,15.57
2017-05-26T03:51:39.153Z,12.18
2017-05-26T03:54:07.593Z,12.78
2017-05-26T03:56:35.251Z,13.15
2017-05-26T03:59:03.193Z,15.70
2017-05-26T04:01:30.847Z,13.42
2017-05-26T04:03:58.496Z,13.37
2017-05-26T04:06:26.161Z,14.05
2017-05-26T04:08:53.819Z,14.08
2017-05-26T04:11:21.793Z,16.38
2017-05-26T04:13:49.445Z,14.55
2017-05-26T04:16:17.102Z,13.87
2017-05-26T04:18:44.798Z,11.75
2017-05-26T04:21:13.004Z,13.17
2017-05-26T04:23:41.050Z,15.45
2017-05-26T04:26:08.813Z,13.77
2017-05-26T04:28:36.569Z,13.90
2017-05-26T04:31:04.256Z,13.68
2017-05-26T04:33:32.690Z,12.20
2017-05-26T04:36:00.630Z,11.22
2017-05-26T04:38:28.289Z,11.62
2017-05-26T04:40:55.956Z,11.78
2017-05-26T04:43:23.721Z,12.28
2017-05-26T04:45:52.008Z,11.80
2017-05-26T04:48:20.007Z,11.57
2017-05-26T04:50:48.416Z,10.60
2017-05-26T04:53:16.846Z,10.25
2017-05-26T04:55:44.533Z,12.03
2017-05-26T04:58:12.923Z,9.70
2017-05-26T05:00:40.871Z,10.55
2017-05-26T05:03:08.540Z,11.27
2017-05-26T05:05:36.201Z,10.35
2017-05-26T05:08:06.010Z,9.87
2017-05-26T05:10:34.433Z,11.63
2017-05-26T05:13:02.488Z,11.47
2017-05-26T05:15:30.902Z,15.42
2017-05-26T05:17:59.444Z,12.43
2017-05-26T05:20:27.124Z,11.17
2017-05-26T05:22:55.879Z,15.68
2017-05-26T05:25:25.305Z,13.33
2017-05-26T05:27:53.964Z,15.37
2017-05-26T05:30:22.405Z,16.18
2017-05-26T05:32:51.810Z,13.17
2017-05-26T05:35:20.274Z,13.53
2017-05-26T05:37:48.276Z,14.42
2017-05-26T05:40:15.933Z,14.67
2017-05-26T05:42:43.710Z,13.70
2017-05-26T05:45:11.580Z,13.70
2017-05-26T05:47:39.641Z,14.82
2017-05-26T05:50:07.663Z,12.78
2017-05-26T05:52:35.321Z,13.47
2017-05-26T05:55:03.017Z,12.47
2017-05-26T05:57:30.900Z,19.25
2017-05-26T05:59:59.421Z,14.05
2017-05-26T06:02:27.394Z,13.22
2017-05-26T06:04:55.449Z,12.97
2017-05-26T06:07:23.117Z,12.83
2017-05-26T06:09:50.794Z,13.13
2017-05-26T06:12:18.724Z,12.98
2017-05-26T06:14:46.660Z,9.66
2017-05-26T06:17:14.285Z,10.42
2017-05-26T06:19:41.913Z,10.70
2017-05-26T06:22:09.717Z,12.20
2017-05-26T06:24:38.122Z,11.52
2017-05-26T06:27:06.605Z,11.68
2017-05-26T06:29:34.988Z,9.96
2017-05-26T06:32:02.878Z,12.46
2017-05-26T06:34:31.338Z,8.58
2017-05-26T06:36:58.966Z,10.36
2017-05-26T06:39:26.913Z,11.04
2017-05-26T06:41:55.337Z,9.92
2017-05-26T06:44:23.732Z,13.88
2017-05-26T06:46:51.385Z,9.74
2017-05-26T06:49:19.030Z,10.78
2017-05-26T06:51:46.956Z,11.46
2017-05-26T06:54:14.579Z,10.22
2017-05-26T06:56:42.972Z,11.32
2017-05-26T06:59:10.613Z,9.76
2017-05-26T07:01:38.327Z,13.42
2017-05-26T07:04:06.346Z,10.50
2017-05-26T07:06:33.981Z,11.38
2017-05-26T07:09:01.665Z,12.30
2017-05-26T07:11:29.347Z,10.90
2017-05-26T07:13:57.738Z,10.54
2017-05-26T07:16:25.697Z,11.84
2017-05-26T07:18:53.329Z,9.34
2017-05-26T07:21:21.722Z,11.02
2017-05-26T07:23:49.376Z,10.02
2017-05-26T07:26:16.993Z,9.96
2017-05-26T07:28:44.955Z,9.58
2017-05-26T07:31:13.339Z,9.20
2017-05-26T07:33:40.989Z,8.68
2017-05-26T07:36:08.649Z,8.40
2017-05-26T07:38:36.274Z,9.32
2017-05-26T07:41:04.210Z,11.18
2017-05-26T07:43:31.897Z,9.54
2017-05-26T07:45:59.639Z,9.44
2017-05-26T07:48:27.287Z,8.96
2017-05-26T07:50:54.909Z,8.98
2017-05-26T07:53:22.869Z,9.80
2017-05-26T07:55:50.636Z,7.54
2017-05-26T07:58:19.201Z,9.10
2017-05-26T08:00:46.884Z,7.36
2017-05-26T08:03:14.522Z,8.20
2017-05-26T08:05:42.516Z,8.40
2017-05-26T08:08:10.152Z,8.62
2017-05-26T08:10:37.821Z,8.40
2017-05-26T08:13:05.621Z,8.26
2017-05-26T08:15:33.237Z,7.16
2017-05-26T08:18:01.171Z,6.36
2017-05-26T08:20:29.561Z,9.44
2017-05-26T08:22:57.221Z,7.14
2017-05-26T08:25:25.641Z,5.82
2017-05-26T08:27:53.277Z,7.24
2017-05-26T08:30:21.245Z,8.22
2017-05-26T08:32:48.866Z,8.30
2017-05-26T08:35:16.500Z,7.50
2017-05-26T08:37:44.154Z,8.82
2017-05-26T08:40:11.794Z,9.02
2017-05-26T08:42:39.801Z,7.74
2017-05-26T08:45:07.534Z,8.38
2017-05-26T08:47:35.165Z,7.62
2017-05-26T08:50:02.851Z,8.00
2017-05-26T08:52:30.522Z,7.88
2017-05-26T08:54:58.205Z,7.10
2017-05-26T08:57:26.852Z,5.60
2017-05-26T08:59:54.477Z,7.34
2017-05-26T09:02:22.120Z,8.36
2017-05-26T09:04:50.903Z,5.46
2017-05-26T09:07:19.336Z,7.86
2017-05-26T09:09:47.806Z,10.00
2017-05-26T09:12:15.482Z,7.48
2017-05-26T09:14:43.117Z,7.06
2017-05-26T09:17:11.073Z,9.16
2017-05-26T09:19:38.738Z,8.88
2017-05-26T09:22:06.489Z,10.02
2017-05-26T09:24:34.948Z,9.86
2017-05-26T09:27:03.107Z,10.38
2017-05-26T09:29:31.997Z,9.58
2017-05-26T09:32:00.427Z,7.68
2017-05-26T09:34:28.766Z,8.20
2017-05-26T09:36:56.506Z,9.12
2017-05-26T09:39:24.125Z,9.38
2017-05-26T09:41:52.829Z,8.14
2017-05-26T09:44:20.569Z,7.94
2017-05-26T09:46:48.205Z,8.22
2017-05-26T09:49:15.848Z,8.00
2017-05-26T09:51:43.477Z,9.56
2017-05-26T09:54:11.465Z,8.66
2017-05-26T09:56:39.087Z,7.92
2017-05-26T09:59:06.713Z,8.90
2017-05-26T10:01:34.357Z,8.76
2017-05-26T10:04:01.981Z,8.98
2017-05-26T10:06:30.388Z,8.72
2017-05-26T10:08:58.017Z,6.64
2017-05-26T10:11:25.650Z,7.32
2017-05-26T10:13:53.316Z,7.92
2017-05-26T10:16:21.051Z,9.04
2017-05-26T10:18:48.996Z,8.28
2017-05-26T10:21:16.622Z,8.78
2017-05-26T10:23:45.032Z,7.20
2017-05-26T10:26:12.699Z,8.44
2017-05-26T10:28:40.325Z,6.14
2017-05-26T10:31:09.039Z,6.80
2017-05-26T10:33:36.658Z,7.76
2017-05-26T10:36:04.341Z,8.30
2017-05-26T10:38:32.005Z,7.04
2017-05-26T10:40:59.621Z,8.46
2017-05-26T10:43:27.598Z,5.78
2017-05-26T10:45:55.221Z,8.46
2017-05-26T10:48:22.909Z,6.34
2017-05-26T10:50:50.544Z,7.08
2017-05-26T10:53:18.226Z,5.82
2017-05-26T10:55:46.221Z,6.28
2017-05-26T10:58:13.840Z,7.06
2017-05-26T11:00:41.453Z,6.06
2017-05-26T11:03:09.093Z,6.86
2017-05-26T11:05:36.744Z,6.44
2017-05-26T11:08:04.998Z,5.86
2017-05-26T11:10:32.717Z,4.50
2017-05-26T11:13:00.391Z,6.48
2017-05-26T11:15:28.037Z,6.98
2017-05-26T11:17:55.661Z,5.04
2017-05-26T11:20:23.694Z,5.14
2017-05-26T11:22:51.317Z,5.52
2017-05-26T11:25:19.025Z,6.82
2017-05-26T11:27:46.713Z,6.58
2017-05-26T11:30:15.169Z,6.56
2017-05-26T11:32:43.167Z,6.88
2017-05-26T11:35:10.799Z,5.18
2017-05-26T11:37:38.422Z,5.74
2017-05-26T11:40:06.070Z,6.40
2017-05-26T11:42:34.475Z,5.62
2017-05-26T11:45:02.401Z,6.36
2017-05-26T11:47:30.023Z,6.50
2017-05-26T11:49:58.413Z,9.28
2017-05-26T11:52:26.070Z,6.32
2017-05-26T11:54:53.698Z,6.08
2017-05-26T11:57:21.709Z,5.20
2017-05-26T11:59:50.110Z,7.88
2017-05-26T12:02:17.745Z,6.70
2017-05-26T12:04:45.402Z,6.18
2017-05-26T12:07:13.794Z,5.46
2017-05-26T12:09:42.468Z,6.18
2017-05-26T12:12:10.849Z,5.98
2017-05-26T12:14:39.234Z,5.52
2017-05-26T12:17:07.694Z,7.84
2017-05-26T12:19:35.317Z,6.36
2017-05-26T12:22:03.262Z,6.62
2017-05-26T12:24:31.679Z,5.32
2017-05-26T12:26:59.307Z,4.88
2017-05-26T12:29:26.963Z,5.78
2017-05-26T12:31:55.350Z,5.58
2017-05-26T12:34:23.276Z,4.56
2017-05-26T12:36:50.901Z,5.44
2017-05-26T12:39:18.524Z,4.68
2017-05-26T12:41:46.205Z,7.18
2017-05-26T12:44:14.014Z,4.54
2017-05-26T12:46:41.964Z,5.04
2017-05-26T12:49:09.581Z,5.62
2017-05-26T12:51:37.210Z,4.14
2017-05-26T12:54:04.874Z,4.18
2017-05-26T12:56:32.497Z,4.58
2017-05-26T12:59:01.216Z,4.72
2017-05-26T13:01:28.837Z,5.36
2017-05-26T13:03:56.455Z,4.32
2017-05-26T13:06:24.110Z,4.48
2017-05-26T13:08:51.735Z,4.18
2017-05-26T13:11:19.693Z,3.92
2017-05-26T13:13:47.321Z,4.48
2017-05-26T13:16:14.950Z,4.22
2017-05-26T13:18:42.608Z,5.58
2017-05-26T13:21:10.255Z,5.20
2017-05-26T13:23:38.215Z,5.64
2017-05-26T13:26:05.836Z,4.92
2017-05-26T13:28:33.586Z,4.72
2017-05-26T13:31:01.257Z,4.44
2017-05-26T13:33:28.908Z,5.42
2017-05-26T13:35:56.879Z,4.98
2017-05-26T13:38:24.522Z,5.58
2017-05-26T13:40:52.156Z,5.58
2017-05-26T13:43:19.861Z,4.86
2017-05-26T13:45:48.269Z,5.66
2017-05-26T13:48:16.249Z,4.36
2017-05-26T13:50:43.873Z,5.08
2017-05-26T13:53:11.501Z,5.78
2017-05-26T13:55:39.332Z,7.94
2017-05-26T13:58:07.050Z,5.96
2017-05-26T14:00:35.243Z,5.98
2017-05-26T14:03:02.881Z,5.70
2017-05-26T14:05:30.516Z,6.34
2017-05-26T14:07:58.178Z,5.82
2017-05-26T14:10:25.805Z,5.42
2017-05-26T14:12:53.853Z,5.44
2017-05-26T14:15:22.245Z,5.80
2017-05-26T14:17:49.884Z,5.54
2017-05-26T14:20:18.325Z,5.16
2017-05-26T14:22:45.957Z,5.54
2017-05-26T14:25:13.882Z,6.00
2017-05-26T14:27:41.518Z,5.10
2017-05-26T14:30:09.914Z,4.92
2017-05-26T14:32:37.588Z,4.78
2017-05-26T14:35:05.221Z,5.34
2017-05-26T14:37:33.129Z,5.56
2017-05-26T14:40:00.760Z,4.40
2017-05-26T14:42:29.237Z,4.84
2017-05-26T14:44:56.904Z,5.38
2017-05-26T14:47:24.566Z,4.80
2017-05-26T14:49:52.507Z,4.48
2017-05-26T14:52:20.127Z,5.32
2017-05-26T14:54:47.761Z,5.18
2017-05-26T14:57:16.197Z,4.26
2017-05-26T14:59:43.823Z,5.14
2017-05-26T15:02:11.774Z,4.62
2017-05-26T15:04:39.398Z,4.26
2017-05-26T15:07:07.024Z,4.18
2017-05-26T15:09:34.690Z,4.00
2017-05-26T15:12:02.326Z,4.58
2017-05-26T15:14:30.318Z,4.82
2017-05-26T15:16:57.951Z,4.28
2017-05-26T15:19:25.580Z,3.88
2017-05-26T15:21:53.229Z,3.66
2017-05-26T15:24:20.847Z,3.98
2017-05-26T15:26:49.534Z,5.32
2017-05-26T15:29:17.314Z,5.72
2017-05-26T15:31:44.937Z,4.60
2017-05-26T15:34:12.586Z,4.00
2017-05-26T15:36:40.220Z,4.62
2017-05-26T15:39:08.189Z,5.04
2017-05-26T15:41:35.813Z,5.02
2017-05-26T15:44:03.439Z,5.56
2017-05-26T15:46:31.133Z,4.46
2017-05-26T15:48:59.549Z,4.38
2017-05-26T15:51:27.547Z,4.20
2017-05-26T15:53:55.181Z,4.66
2017-05-26T15:56:22.837Z,5.10
2017-05-26T15:58:50.500Z,5.42
2017-05-26T16:01:18.153Z,4.46
2017-05-26T16:03:46.549Z,4.90
2017-05-26T16:06:14.495Z,5.70
2017-05-26T16:08:42.131Z,4.78
2017-05-26T16:11:09.755Z,5.08
2017-05-26T16:13:38.453Z,5.56
2017-05-26T16:16:06.082Z,5.32
2017-05-26T16:18:33.736Z,5.70
2017-05-26T16:21:01.376Z,5.38
2017-05-26T16:23:30.760Z,5.50
2017-05-26T16:25:58.695Z,5.56
2017-05-26T16:28:26.320Z,5.50
2017-05-26T16:30:53.952Z,5.06
2017-05-26T16:33:22.366Z,4.92
2017-05-26T16:35:49.988Z,5.08
2017-05-26T16:38:17.981Z,4.96
2017-05-26T16:40:46.370Z,5.38
2017-05-26T16:43:13.996Z,4.92
2017-05-26T16:45:41.644Z,5.36
2017-05-26T16:48:10.083Z,5.62
2017-05-26T16:50:38.007Z,5.60
2017-05-26T16:53:05.636Z,7.40
2017-05-26T16:55:33.257Z,6.12
2017-05-26T16:58:00.909Z,6.10
2017-05-26T17:00:28.529Z,5.36
2017-05-26T17:02:56.565Z,7.10
2017-05-26T17:05:24.188Z,6.56
2017-05-26T17:07:51.829Z,6.70
2017-05-26T17:10:19.480Z,7.12
2017-05-26T17:12:47.110Z,6.54
2017-05-26T17:15:15.101Z,6.20
2017-05-26T17:17:43.492Z,6.38
2017-05-26T17:20:11.881Z,5.40
2017-05-26T17:22:39.521Z,6.28
2017-05-26T17:25:07.154Z,5.66
2017-05-26T17:27:35.849Z,6.80
2017-05-26T17:30:04.227Z,6.38
2017-05-26T17:32:31.885Z,6.44
2017-05-26T17:34:59.568Z,6.62
2017-05-26T17:37:27.969Z,6.86
2017-05-26T17:39:56.675Z,6.34
2017-05-26T17:42:24.308Z,6.76
2017-05-26T17:44:51.952Z,8.02
2017-05-26T17:47:20.374Z,7.04
2017-05-26T17:49:48.781Z,6.40
2017-05-26T17:52:16.700Z,6.24
2017-05-26T17:54:45.086Z,6.14
2017-05-26T17:57:12.722Z,5.74
2017-05-26T17:59:41.136Z,6.32
2017-05-26T18:02:08.826Z,6.52
2017-05-26T18:04:36.802Z,6.48
2017-05-26T18:07:04.429Z,5.80
2017-05-26T18:09:32.834Z,5.78
2017-05-26T18:12:00.481Z,6.48
2017-05-26T18:14:28.195Z,7.46
2017-05-26T18:16:56.100Z,6.12
2017-05-26T18:19:23.719Z,6.46
2017-05-26T18:21:51.361Z,6.78
2017-05-26T18:24:19.056Z,6.77
2017-05-26T18:26:47.476Z,5.97
2017-05-26T18:29:15.729Z,5.64
2017-05-26T18:31:43.394Z,5.54
2017-05-26T18:34:11.067Z,5.27
2017-05-26T18:36:38.817Z,6.87
2017-05-26T18:39:06.499Z,6.22
2017-05-26T18:41:34.460Z,6.60
2017-05-26T18:44:02.108Z,6.15
2017-05-26T18:46:29.768Z,5.95
2017-05-26T18:48:57.442Z,6.43
2017-05-26T18:51:25.092Z,5.38
2017-05-26T18:53:53.222Z,6.52
2017-05-26T18:56:20.864Z,7.28
2017-05-26T18:58:48.523Z,6.28
2017-05-26T19:01:16.207Z,6.72
2017-05-26T19:03:43.885Z,6.87
2017-05-26T19:06:11.876Z,6.80
2017-05-26T19:08:39.528Z,7.80
2017-05-26T19:11:08.040Z,7.37
2017-05-26T19:13:35.908Z,8.30
2017-05-26T19:16:04.348Z,7.43
2017-05-26T19:18:32.307Z,8.17
2017-05-26T19:21:00.721Z,7.87
2017-05-26T19:23:28.364Z,7.95
2017-05-26T19:25:56.850Z,9.32
2017-05-26T19:28:24.539Z,9.43
2017-05-26T19:30:52.481Z,9.35
2017-05-26T19:33:20.144Z,8.43
2017-05-26T19:35:48.558Z,9.23
2017-05-26T19:38:16.229Z,9.10
2017-05-26T19:40:43.872Z,8.75
2017-05-26T19:43:12.629Z,9.25
2017-05-26T19:45:41.053Z,10.85
2017-05-26T19:48:08.718Z,11.28
2017-05-26T19:50:36.398Z,9.82
2017-05-26T19:53:04.052Z,11.15
2017-05-26T19:55:32.770Z,11.63
2017-05-26T19:58:00.421Z,11.90
2017-05-26T20:00:28.124Z,11.70
2017-05-26T20:02:56.570Z,12.45
2017-05-26T20:05:24.222Z,11.92
2017-05-26T20:07:52.269Z,14.43
2017-05-26T20:10:19.934Z,13.17
2017-05-26T20:12:47.593Z,12.25
2017-05-26T20:15:15.266Z,13.57
2017-05-26T20:17:42.912Z,16.45
2017-05-26T20:20:11.695Z,16.80
2017-05-26T20:22:40.253Z,17.77
2017-05-26T20:25:07.897Z,14.67
2017-05-26T20:27:36.346Z,12.47
2017-05-26T20:30:04.761Z,14.17
2017-05-26T20:32:33.468Z,14.37
2017-05-26T20:35:01.252Z,14.90
2017-05-26T20:37:28.920Z,13.68
2017-05-26T20:39:56.601Z,19.80
2017-05-26T20:42:25.025Z,20.67
2017-05-26T20:44:53.006Z,19.57
2017-05-26T20:47:20.660Z,16.50
2017-05-26T20:49:48.316Z,16.00
2017-05-26T20:52:15.990Z,13.95
2017-05-26T20:54:43.648Z,12.28
2017-05-26T20:57:12.360Z,10.75
2017-05-26T20:59:40.018Z,10.53
2017-05-26T21:02:07.677Z,11.83
2017-05-26T21:04:36.138Z,11.38
2017-05-26T21:07:03.868Z,10.10
2017-05-26T21:09:31.881Z,11.30
2017-05-26T21:11:59.596Z,11.48
2017-05-26T21:14:28.216Z,14.23
2017-05-26T21:16:55.914Z,16.60
2017-05-26T21:19:23.561Z,17.77
2017-05-26T21:21:52.354Z,23.00
2017-05-26T21:24:20.022Z,32.00
2017-05-26T21:26:48.436Z,28.17
2017-05-26T21:29:16.894Z,26.90
2017-05-26T21:31:44.546Z,31.78
2017-05-26T21:34:13.348Z,29.77
2017-05-26T21:36:40.995Z,27.75
2017-05-26T21:39:08.655Z,25.18
2017-05-26T21:41:36.370Z,26.47
2017-05-26T21:44:04.786Z,26.63
2017-05-26T21:46:32.873Z,25.10
2017-05-26T21:49:01.325Z,25.52
2017-05-26T21:51:29.744Z,21.98
2017-05-26T21:53:57.425Z,20.58
2017-05-26T21:56:25.079Z,18.23
2017-05-26T21:58:53.053Z,17.23
2017-05-26T22:01:20.703Z,16.68
2017-05-26T22:03:48.361Z,18.30
2017-05-26T22:06:16.036Z,16.62
2017-05-26T22:08:43.685Z,16.88
2017-05-26T22:11:11.700Z,17.78
2017-05-26T22:13:39.377Z,16.97
2017-05-26T22:16:07.048Z,16.58
2017-05-26T22:18:34.731Z,17.45
2017-05-26T22:21:03.143Z,13.88
2017-05-26T22:23:31.156Z,13.75
2017-05-26T22:25:58.808Z,12.78
2017-05-26T22:28:27.227Z,14.40
2017-05-26T22:30:54.904Z,12.13
2017-05-26T22:33:23.325Z,12.52
2017-05-26T22:35:51.332Z,14.62
2017-05-26T22:38:19.092Z,13.90
2017-05-26T22:40:47.508Z,14.67
2017-05-26T22:43:15.181Z,14.47
2017-05-26T22:45:42.835Z,12.58
2017-05-26T22:48:10.802Z,13.43
2017-05-26T22:50:38.453Z,12.13
2017-05-26T22:53:06.109Z,11.85
2017-05-26T22:55:33.787Z,12.65
2017-05-26T22:58:01.444Z,11.52
2017-05-26T23:00:29.384Z,15.82
2017-05-26T23:02:57.040Z,12.93
2017-05-26T23:05:24.690Z,13.28
2017-05-26T23:07:52.376Z,11.90
2017-05-26T23:10:20.024Z,13.08
2017-05-26T23:12:47.977Z,13.05
2017-05-26T23:15:16.398Z,10.82
2017-05-26T23:17:44.057Z,12.23
2017-05-26T23:20:12.509Z,11.80
2017-05-26T23:22:40.161Z,13.47
2017-05-26T23:25:08.092Z,13.63
2017-05-26T23:27:35.741Z,12.73
2017-05-26T23:30:04.169Z,12.98
2017-05-26T23:32:31.842Z,10.95
2017-05-26T23:34:59.509Z,11.45
2017-05-26T23:37:27.926Z,11.60
2017-05-26T23:39:56.086Z,12.58
2017-05-26T23:42:23.741Z,13.30
2017-05-26T23:44:51.388Z,13.12
2017-05-26T23:47:20.188Z,12.68
2017-05-26T23:49:48.612Z,11.92
2017-05-26T23:52:16.267Z,11.95
2017-05-26T23:54:44.701Z,11.38
2017-05-26T23:57:12.357Z,11.53
2017-05-26T23:59:40.328Z,9.95
